createdAt,value
2022-08-26T00:01:55.662Z,12.45
2022-08-26T00:04:25.333Z,11.77
2022-08-26T00:06:53.920Z,12.60
2022-08-26T00:09:20.655Z,14.73
2022-08-26T00:11:47.492Z,14.85
2022-08-26T00:14:14.719Z,12.93
2022-08-26T00:16:47.952Z,11.35
2022-08-26T00:19:20.251Z,13.88
2022-08-26T00:21:48.620Z,12.70
2022-08-26T00:24:15.957Z,13.05
2022-08-26T00:26:42.488Z,11.50
2022-08-26T00:29:09.569Z,11.77
2022-08-26T00:31:37.484Z,12.77
2022-08-26T00:34:04.067Z,13.93
2022-08-26T00:36:32.431Z,13.30
2022-08-26T00:38:59.511Z,12.90
2022-08-26T00:41:26.539Z,11.68
2022-08-26T00:43:54.251Z,10.32
2022-08-26T00:46:25.323Z,11.20
2022-08-26T00:49:05.541Z,11.98
2022-08-26T00:51:47.314Z,11.63
2022-08-26T00:54:16.444Z,12.50
2022-08-26T00:56:52.918Z,13.00
2022-08-26T00:59:20.375Z,13.52
2022-08-26T01:01:47.111Z,10.93
2022-08-26T01:04:19.272Z,12.55
2022-08-26T01:06:48.578Z,12.48
2022-08-26T01:09:16.115Z,13.35
2022-08-26T01:11:42.814Z,11.55
2022-08-26T01:14:12.438Z,12.52
2022-08-26T01:16:39.611Z,11.98
2022-08-26T01:19:27.098Z,12.68
2022-08-26T01:22:02.453Z,12.68
2022-08-26T01:24:30.815Z,12.60
2022-08-26T01:27:05.132Z,12.35
2022-08-26T01:29:33.694Z,12.80
2022-08-26T01:32:00.687Z,11.90
2022-08-26T01:34:35.017Z,11.07
2022-08-26T01:37:05.431Z,11.88
2022-08-26T01:39:33.704Z,12.63
2022-08-26T01:42:03.135Z,13.00
2022-08-26T01:44:36.343Z,12.40
2022-08-26T01:47:05.136Z,13.45
2022-08-26T01:49:35.733Z,14.68
2022-08-26T01:52:04.836Z,15.13
2022-08-26T01:54:32.459Z,17.67
2022-08-26T01:57:00.357Z,14.85
2022-08-26T01:59:27.067Z,17.98
2022-08-26T02:01:53.844Z,14.98
2022-08-26T02:04:36.030Z,15.00
2022-08-26T02:07:06.481Z,11.35
2022-08-26T02:09:41.290Z,11.18
2022-08-26T02:12:09.370Z,13.98
2022-08-26T02:14:44.446Z,15.43
2022-08-26T02:17:11.883Z,11.55
2022-08-26T02:19:41.918Z,10.30
2022-08-26T02:22:14.989Z,14.35
2022-08-26T02:24:59.479Z,13.40
2022-08-26T02:27:31.997Z,10.35
2022-08-26T02:30:07.819Z,11.05
2022-08-26T02:32:34.376Z,10.48
2022-08-26T02:35:01.865Z,12.35
2022-08-26T02:37:31.231Z,12.00
2022-08-26T02:39:58.096Z,12.73
2022-08-26T02:42:24.741Z,12.90
2022-08-26T02:44:51.819Z,12.65
2022-08-26T02:47:18.387Z,13.13
2022-08-26T02:49:47.228Z,12.07
2022-08-26T02:52:14.831Z,10.20
2022-08-26T02:54:41.479Z,13.68
2022-08-26T02:57:08.135Z,14.85
2022-08-26T02:59:36.058Z,11.38
2022-08-26T03:02:03.235Z,11.43
2022-08-26T03:04:30.460Z,10.70
2022-08-26T03:07:00.019Z,12.00
2022-08-26T03:09:27.541Z,11.07
2022-08-26T03:11:55.522Z,11.75
2022-08-26T03:14:23.972Z,12.85
2022-08-26T03:16:54.470Z,13.05
2022-08-26T03:19:25.585Z,13.75
2022-08-26T03:21:53.734Z,14.32
2022-08-26T03:24:25.556Z,14.55
2022-08-26T03:26:52.875Z,14.23
2022-08-26T03:29:39.516Z,17.10
2022-08-26T03:32:06.270Z,16.38
2022-08-26T03:34:33.439Z,16.23
2022-08-26T03:37:00.310Z,15.43
2022-08-26T03:39:26.882Z,14.82
2022-08-26T03:41:54.258Z,12.35
2022-08-26T03:44:21.051Z,12.68
2022-08-26T03:46:47.641Z,11.82
2022-08-26T03:49:15.198Z,11.45
2022-08-26T03:51:42.145Z,11.00
2022-08-26T03:54:09.412Z,11.23
2022-08-26T03:56:37.186Z,12.80
2022-08-26T03:59:07.599Z,14.82
2022-08-26T04:01:34.995Z,13.48
2022-08-26T04:04:01.809Z,14.23
2022-08-26T04:06:33.448Z,15.05
2022-08-26T04:09:04.309Z,15.65
2022-08-26T04:11:34.034Z,14.18
2022-08-26T04:14:04.332Z,13.90
2022-08-26T04:16:31.446Z,15.13
2022-08-26T04:18:58.465Z,14.23
2022-08-26T04:21:25.880Z,12.90
2022-08-26T04:23:54.364Z,11.68
2022-08-26T04:26:22.551Z,12.35
2022-08-26T04:28:51.123Z,12.82
2022-08-26T04:31:18.909Z,12.88
2022-08-26T04:33:47.598Z,13.48
2022-08-26T04:36:17.459Z,13.27
2022-08-26T04:38:46.607Z,12.65
2022-08-26T04:41:15.082Z,12.63
2022-08-26T04:43:43.958Z,12.23
2022-08-26T04:46:12.818Z,12.10
2022-08-26T04:48:41.093Z,11.40
2022-08-26T04:51:09.701Z,11.13
2022-08-26T04:53:36.867Z,11.45
2022-08-26T04:56:04.409Z,10.00
2022-08-26T04:58:31.256Z,9.50
2022-08-26T05:00:58.501Z,9.65
2022-08-26T05:03:30.530Z,9.68
2022-08-26T05:05:58.907Z,9.18
2022-08-26T05:08:25.820Z,10.55
2022-08-26T05:10:56.263Z,10.32
2022-08-26T05:13:27.477Z,9.90
2022-08-26T05:15:54.720Z,9.55
2022-08-26T05:18:27.539Z,9.40
2022-08-26T05:20:55.040Z,9.27
2022-08-26T05:23:23.271Z,9.60
2022-08-26T05:25:54.639Z,9.23
2022-08-26T05:28:22.080Z,9.48
2022-08-26T05:30:50.190Z,9.20
2022-08-26T05:33:18.489Z,9.38
2022-08-26T05:35:45.860Z,9.55
2022-08-26T05:38:15.601Z,9.70
2022-08-26T05:40:44.785Z,9.40
2022-08-26T05:43:13.318Z,8.63
2022-08-26T05:45:45.844Z,9.18
2022-08-26T05:48:13.838Z,9.82
2022-08-26T05:50:43.852Z,9.43
2022-08-26T05:53:12.322Z,9.57
2022-08-26T05:55:44.395Z,10.63
2022-08-26T05:58:12.454Z,9.95
2022-08-26T06:00:40.567Z,9.68
2022-08-26T06:03:08.352Z,9.70
2022-08-26T06:05:41.946Z,9.02
2022-08-26T06:08:11.391Z,9.27
2022-08-26T06:10:55.585Z,9.25
2022-08-26T06:13:26.861Z,9.70
2022-08-26T06:15:54.617Z,8.55
2022-08-26T06:18:36.405Z,9.15
2022-08-26T06:21:31.452Z,8.80
2022-08-26T06:24:20.387Z,8.32
2022-08-26T06:27:01.474Z,9.02
2022-08-26T06:29:30.112Z,9.73
2022-08-26T06:31:57.973Z,8.88
2022-08-26T06:34:29.763Z,8.88
2022-08-26T06:36:59.757Z,8.57
2022-08-26T06:39:28.309Z,8.80
2022-08-26T06:41:57.641Z,9.07
2022-08-26T06:44:24.201Z,8.85
2022-08-26T06:46:51.376Z,8.88
2022-08-26T06:49:18.181Z,8.88
2022-08-26T06:51:52.705Z,9.15
2022-08-26T06:54:19.591Z,9.25
2022-08-26T06:56:46.407Z,9.48
2022-08-26T06:59:15.370Z,9.98
2022-08-26T07:01:44.826Z,9.27
2022-08-26T07:04:14.600Z,9.07
2022-08-26T07:06:47.068Z,9.23
2022-08-26T07:09:13.628Z,9.23
2022-08-26T07:11:41.746Z,9.40
2022-08-26T07:14:09.088Z,9.50
2022-08-26T07:16:35.965Z,9.98
2022-08-26T07:19:03.589Z,9.80
2022-08-26T07:21:40.372Z,8.93
2022-08-26T07:24:07.592Z,10.23
2022-08-26T07:26:34.529Z,9.10
2022-08-26T07:29:01.795Z,9.10
2022-08-26T07:31:39.273Z,8.63
2022-08-26T07:34:09.319Z,8.93
2022-08-26T07:36:36.631Z,8.27
2022-08-26T07:39:03.869Z,8.77
2022-08-26T07:43:56.821Z,8.18
2022-08-26T07:49:15.784Z,8.80
2022-08-26T07:51:42.393Z,9.40
2022-08-26T07:54:10.201Z,8.60
2022-08-26T07:56:39.486Z,8.70
2022-08-26T07:59:13.835Z,8.90
2022-08-26T08:01:45.173Z,8.30
2022-08-26T08:04:17.320Z,8.85
2022-08-26T08:06:45.048Z,8.40
2022-08-26T08:09:14.096Z,8.60
2022-08-26T08:11:43.535Z,9.25
2022-08-26T08:14:11.978Z,9.48
2022-08-26T08:16:41.519Z,8.52
2022-08-26T08:19:13.574Z,8.95
2022-08-26T08:21:41.909Z,8.32
2022-08-26T08:24:08.520Z,9.20
2022-08-26T08:26:35.501Z,9.57
2022-08-26T08:29:02.890Z,9.13
2022-08-26T08:31:56.069Z,8.63
2022-08-26T08:34:19.226Z,8.85
2022-08-26T08:36:48.123Z,8.35
2022-08-26T08:39:14.657Z,8.43
2022-08-26T08:42:07.449Z,8.52
2022-08-26T08:44:41.352Z,8.07
2022-08-26T08:47:33.995Z,7.37
2022-08-26T08:50:12.474Z,7.70
2022-08-26T08:52:43.036Z,8.27
2022-08-26T08:55:16.104Z,7.75
2022-08-26T08:58:02.571Z,8.23
2022-08-26T09:00:39.769Z,8.43
2022-08-26T09:03:31.738Z,8.15
2022-08-26T09:06:00.501Z,7.38
2022-08-26T09:08:35.238Z,6.57
2022-08-26T09:11:03.666Z,6.82
2022-08-26T09:13:31.702Z,6.90
2022-08-26T09:16:13.956Z,6.70
2022-08-26T09:18:47.711Z,6.90
2022-08-26T09:21:17.864Z,6.47
2022-08-26T09:23:49.175Z,6.10
2022-08-26T09:26:24.787Z,6.13
2022-08-26T09:28:57.467Z,6.28
2022-08-26T09:31:27.679Z,5.68
2022-08-26T09:34:17.866Z,6.80
2022-08-26T09:36:53.583Z,6.82
2022-08-26T09:39:37.801Z,6.68
2022-08-26T09:42:07.770Z,6.38
2022-08-26T09:44:52.128Z,6.28
2022-08-26T09:47:25.660Z,6.10
2022-08-26T09:50:09.920Z,6.13
2022-08-26T09:52:40.343Z,6.30
2022-08-26T09:55:22.006Z,6.70
2022-08-26T09:57:54.731Z,6.28
2022-08-26T10:00:44.035Z,6.28
2022-08-26T10:03:17.265Z,6.07
2022-08-26T10:05:58.437Z,6.32
2022-08-26T10:08:41.285Z,6.38
2022-08-26T10:11:24.503Z,6.28
2022-08-26T10:13:56.859Z,5.70
2022-08-26T10:16:30.284Z,5.47
2022-08-26T10:19:15.813Z,6.10
2022-08-26T10:22:06.014Z,5.70
2022-08-26T10:24:44.188Z,4.95
2022-08-26T10:27:36.442Z,5.45
2022-08-26T10:30:23.485Z,6.15
2022-08-26T10:33:26.309Z,5.85
2022-08-26T10:42:58.436Z,5.40
2022-08-26T10:45:31.907Z,5.20
2022-08-26T10:48:06.800Z,5.70
2022-08-26T10:50:38.129Z,5.50
2022-08-26T10:53:25.018Z,5.75
2022-08-26T10:56:15.901Z,5.45
2022-08-26T10:59:13.577Z,5.60
2022-08-26T11:01:52.581Z,4.93
2022-08-26T11:04:48.210Z,5.13
2022-08-26T11:07:35.314Z,4.90
2022-08-26T11:10:31.091Z,4.53
2022-08-26T11:15:30.051Z,4.82
2022-08-26T11:18:03.314Z,4.75
2022-08-26T11:41:33.637Z,4.22
2022-08-26T11:44:02.007Z,4.00
2022-08-26T11:46:37.523Z,4.68
2022-08-26T11:49:07.321Z,5.47
2022-08-26T11:51:40.489Z,4.40
2022-08-26T11:54:14.797Z,4.00
2022-08-26T11:56:44.773Z,4.50
2022-08-26T11:59:15.553Z,4.07
2022-08-26T12:01:45.298Z,4.50
2022-08-26T12:04:28.730Z,4.05
2022-08-26T12:06:57.067Z,4.18
2022-08-26T12:09:27.156Z,4.07
2022-08-26T12:12:27.067Z,4.70
2022-08-26T12:15:14.155Z,4.30
2022-08-26T12:17:42.061Z,3.47
2022-08-26T12:20:30.372Z,4.28
2022-08-26T12:23:00.093Z,4.57
2022-08-26T12:25:28.088Z,4.78
2022-08-26T12:28:05.511Z,4.30
2022-08-26T12:30:32.096Z,4.13
2022-08-26T12:33:21.933Z,4.63
2022-08-26T12:35:51.474Z,4.43
2022-08-26T12:38:21.600Z,4.40
2022-08-26T12:40:50.373Z,5.07
2022-08-26T12:43:43.579Z,4.20
2022-08-26T12:46:13.749Z,3.92
2022-08-26T12:48:44.779Z,4.65
2022-08-26T12:51:25.677Z,4.30
2022-08-26T12:53:53.384Z,4.43
2022-08-26T12:56:29.932Z,4.10
2022-08-26T12:59:11.173Z,4.72
2022-08-26T13:01:43.240Z,4.57
2022-08-26T13:04:37.967Z,4.20
2022-08-26T13:07:22.386Z,4.32
2022-08-26T13:09:54.477Z,4.43
2022-08-26T13:12:27.592Z,4.15
2022-08-26T13:14:54.803Z,4.50
2022-08-26T13:17:21.533Z,3.78
2022-08-26T13:19:49.266Z,4.20
2022-08-26T13:22:22.542Z,4.53
2022-08-26T13:24:49.119Z,5.22
2022-08-26T13:27:16.224Z,4.68
2022-08-26T13:29:43.509Z,4.28
2022-08-26T13:32:10.903Z,4.32
2022-08-26T13:34:38.130Z,4.05
2022-08-26T13:37:05.250Z,4.10
2022-08-26T13:39:32.244Z,5.10
2022-08-26T13:41:58.906Z,4.32
2022-08-26T13:44:25.886Z,4.47
2022-08-26T13:46:52.588Z,4.43
2022-08-26T13:49:19.180Z,4.40
2022-08-26T13:51:45.754Z,4.88
2022-08-26T13:54:12.341Z,4.10
2022-08-26T13:56:39.205Z,4.40
2022-08-26T13:59:06.676Z,4.13
2022-08-26T14:01:34.718Z,4.68
2022-08-26T14:04:03.121Z,4.80
2022-08-26T14:06:30.416Z,4.40
2022-08-26T14:08:57.537Z,3.97
2022-08-26T14:11:25.110Z,4.20
2022-08-26T14:13:51.934Z,4.05
2022-08-26T14:16:25.667Z,4.18
2022-08-26T14:18:53.100Z,4.28
2022-08-26T14:21:19.835Z,4.05
2022-08-26T14:23:46.673Z,4.00
2022-08-26T14:26:23.098Z,4.28
2022-08-26T14:28:59.818Z,4.05
2022-08-26T14:31:29.360Z,3.80
2022-08-26T14:34:02.615Z,4.35
2022-08-26T14:36:29.490Z,4.20
2022-08-26T14:38:58.456Z,3.97
2022-08-26T14:41:25.543Z,3.67
2022-08-26T14:44:00.273Z,3.70
2022-08-26T14:46:30.334Z,3.95
2022-08-26T14:49:01.837Z,3.90
2022-08-26T14:51:29.778Z,3.90
2022-08-26T14:54:15.321Z,4.30
2022-08-26T14:59:21.507Z,3.72
2022-08-26T15:01:49.639Z,3.55
2022-08-26T15:04:16.613Z,3.42
2022-08-26T15:09:37.621Z,3.85
2022-08-26T15:12:05.902Z,3.78
2022-08-26T15:14:33.361Z,4.10
2022-08-26T15:17:00.838Z,3.72
2022-08-26T15:19:27.713Z,3.95
2022-08-26T15:21:54.524Z,3.72
2022-08-26T15:24:23.203Z,3.58
2022-08-26T15:26:50.462Z,3.95
2022-08-26T15:29:17.510Z,3.90
2022-08-26T15:31:44.345Z,4.18
2022-08-26T15:34:16.412Z,4.10
2022-08-26T15:36:44.964Z,3.75
2022-08-26T15:39:12.245Z,3.97
2022-08-26T15:41:39.533Z,3.75
2022-08-26T15:44:07.854Z,3.78
2022-08-26T15:46:35.714Z,3.67
2022-08-26T15:49:04.294Z,3.90
2022-08-26T15:51:34.212Z,4.22
2022-08-26T15:54:02.936Z,4.03
2022-08-26T15:56:34.720Z,3.83
2022-08-26T15:59:02.491Z,3.75
2022-08-26T16:01:32.066Z,3.83
2022-08-26T16:03:59.796Z,4.25
2022-08-26T16:06:30.773Z,3.60
2022-08-26T16:08:58.060Z,3.92
2022-08-26T16:11:26.190Z,3.42
2022-08-26T16:13:52.783Z,4.05
2022-08-26T16:16:19.622Z,3.50
2022-08-26T16:18:48.519Z,3.90
2022-08-26T16:21:19.424Z,3.88
2022-08-26T16:23:46.368Z,3.90
2022-08-26T16:26:16.373Z,4.03
2022-08-26T16:28:43.800Z,3.83
2022-08-26T16:31:10.931Z,3.60
2022-08-26T16:33:37.966Z,3.95
2022-08-26T16:36:05.568Z,3.75
2022-08-26T16:38:32.402Z,3.67
2022-08-26T16:41:01.407Z,3.60
2022-08-26T16:43:28.736Z,3.67
2022-08-26T16:45:56.184Z,4.05
2022-08-26T16:48:23.662Z,3.95
2022-08-26T16:50:51.230Z,3.85
2022-08-26T16:53:19.129Z,3.72
2022-08-26T16:55:47.623Z,3.95
2022-08-26T16:58:15.094Z,3.78
2022-08-26T17:00:41.845Z,3.85
2022-08-26T17:03:08.797Z,3.70
2022-08-26T17:05:36.377Z,3.95
2022-08-26T17:08:04.193Z,4.03
2022-08-26T17:10:32.297Z,3.65
2022-08-26T17:12:59.185Z,3.70
2022-08-26T17:15:26.083Z,3.90
2022-08-26T17:17:53.932Z,3.33
2022-08-26T17:20:22.464Z,3.38
2022-08-26T17:22:51.063Z,3.97
2022-08-26T17:25:24.603Z,4.00
2022-08-26T17:27:51.480Z,4.05
2022-08-26T17:30:18.876Z,4.15
2022-08-26T17:32:46.307Z,4.05
2022-08-26T17:35:14.249Z,3.90
2022-08-26T17:37:41.690Z,4.30
2022-08-26T17:40:15.404Z,3.67
2022-08-26T17:42:42.511Z,3.88
2022-08-26T17:45:10.260Z,3.90
2022-08-26T17:47:37.474Z,3.85
2022-08-26T17:50:05.901Z,4.03
2022-08-26T17:52:32.820Z,4.25
2022-08-26T17:54:59.427Z,3.78
2022-08-26T17:57:26.126Z,3.92
2022-08-26T17:59:53.549Z,3.88
2022-08-26T18:02:21.157Z,4.15
2022-08-26T18:04:48.488Z,3.38
2022-08-26T18:07:16.187Z,4.00
2022-08-26T18:09:43.188Z,4.28
2022-08-26T18:12:09.937Z,4.00
2022-08-26T18:14:36.813Z,4.28
2022-08-26T18:17:04.346Z,3.95
2022-08-26T18:19:31.464Z,3.72
2022-08-26T18:21:58.400Z,3.67
2022-08-26T18:24:30.308Z,4.20
2022-08-26T18:26:57.032Z,3.92
2022-08-26T18:29:25.662Z,3.72
2022-08-26T18:31:52.484Z,4.07
2022-08-26T18:34:19.477Z,3.67
2022-08-26T18:36:46.771Z,3.83
2022-08-26T18:39:15.006Z,4.22
2022-08-26T18:41:49.017Z,3.85
2022-08-26T18:44:18.184Z,3.72
2022-08-26T18:46:46.433Z,4.30
2022-08-26T18:49:15.106Z,3.95
2022-08-26T18:51:42.868Z,4.40
2022-08-26T18:54:10.419Z,3.70
2022-08-26T18:56:39.276Z,4.30
2022-08-26T18:59:07.629Z,4.60
2022-08-26T19:01:35.288Z,4.55
2022-08-26T19:04:03.519Z,3.75
2022-08-26T19:06:32.884Z,4.18
2022-08-26T19:08:59.980Z,4.13
2022-08-26T19:11:31.566Z,4.45
2022-08-26T19:14:00.744Z,4.03
2022-08-26T19:16:28.237Z,4.50
2022-08-26T19:18:56.063Z,4.10
2022-08-26T19:21:23.490Z,4.10
2022-08-26T19:23:50.708Z,4.80
2022-08-26T19:26:17.642Z,4.10
2022-08-26T19:28:44.197Z,4.70
2022-08-26T19:31:12.060Z,4.63
2022-08-26T19:33:42.906Z,4.68
2022-08-26T19:36:15.019Z,4.50
2022-08-26T19:38:42.795Z,6.10
2022-08-26T19:41:13.814Z,4.88
2022-08-26T19:43:40.699Z,5.00
2022-08-26T19:46:16.165Z,4.93
2022-08-26T19:48:46.661Z,4.65
2022-08-26T19:51:27.126Z,5.13
2022-08-26T19:53:55.640Z,4.93
2022-08-26T19:56:23.066Z,4.47
2022-08-26T19:58:50.484Z,4.40
2022-08-26T20:01:18.173Z,4.55
2022-08-26T20:03:45.748Z,4.90
2022-08-26T20:06:14.417Z,4.80
2022-08-26T20:08:42.355Z,4.75
2022-08-26T20:11:14.538Z,4.90
2022-08-26T20:13:42.134Z,4.80
2022-08-26T20:16:10.435Z,4.38
2022-08-26T20:18:55.464Z,4.20
2022-08-26T20:21:28.482Z,4.68
2022-08-26T20:24:01.169Z,5.22
2022-08-26T20:26:29.507Z,5.25
2022-08-26T20:28:57.916Z,4.60
2022-08-26T20:31:25.904Z,5.65
2022-08-26T20:33:53.625Z,4.68
2022-08-26T20:36:22.704Z,4.97
2022-08-26T20:38:50.215Z,4.82
2022-08-26T20:41:17.380Z,5.15
2022-08-26T20:43:45.289Z,4.95
2022-08-26T20:46:18.128Z,4.82
2022-08-26T20:48:46.648Z,5.10
2022-08-26T20:51:15.749Z,4.97
2022-08-26T20:53:42.637Z,4.93
2022-08-26T20:56:10.818Z,5.25
2022-08-26T20:58:38.183Z,5.22
2022-08-26T21:01:07.968Z,5.10
2022-08-26T21:03:36.173Z,5.50
2022-08-26T21:06:03.873Z,5.03
2022-08-26T21:08:33.198Z,5.00
2022-08-26T21:11:00.800Z,5.40
2022-08-26T21:13:35.784Z,4.65
2022-08-26T21:16:10.188Z,5.25
2022-08-26T21:18:37.089Z,5.88
2022-08-26T21:21:08.384Z,5.47
2022-08-26T21:23:36.215Z,5.60
2022-08-26T21:26:08.666Z,5.80
2022-08-26T21:28:36.783Z,5.43
2022-08-26T21:31:05.259Z,5.63
2022-08-26T21:33:32.348Z,5.80
2022-08-26T21:35:59.694Z,5.70
2022-08-26T21:38:26.689Z,6.13
2022-08-26T21:40:59.560Z,5.72
2022-08-26T21:43:35.062Z,5.43
2022-08-26T21:46:07.968Z,5.47
2022-08-26T21:48:35.964Z,5.70
2022-08-26T21:51:04.969Z,5.38
2022-08-26T21:53:31.944Z,5.80
2022-08-26T21:55:58.699Z,5.40
2022-08-26T21:58:25.332Z,5.60
2022-08-26T22:00:52.039Z,5.68
2022-08-26T22:03:18.888Z,5.63
2022-08-26T22:05:51.397Z,5.28
2022-08-26T22:08:23.036Z,5.78
2022-08-26T22:10:55.148Z,5.63
2022-08-26T22:13:29.685Z,5.88
2022-08-26T22:15:57.962Z,5.72
2022-08-26T22:18:26.848Z,6.07
2022-08-26T22:20:55.582Z,6.07
2022-08-26T22:23:22.996Z,5.88
2022-08-26T22:25:50.655Z,5.57
2022-08-26T22:28:18.076Z,5.63
2022-08-26T22:30:46.650Z,6.00
2022-08-26T22:33:14.248Z,5.80
2022-08-26T22:35:44.988Z,6.03
2022-08-26T22:38:11.959Z,6.22
2022-08-26T22:40:44.575Z,5.65
2022-08-26T22:43:12.918Z,6.55
2022-08-26T22:45:45.774Z,6.22
2022-08-26T22:48:15.632Z,6.28
2022-08-26T22:50:44.226Z,5.90
2022-08-26T22:53:10.891Z,5.85
2022-08-26T22:55:38.054Z,6.05
2022-08-26T22:58:06.041Z,5.75
2022-08-26T23:00:33.236Z,6.30
2022-08-26T23:03:01.008Z,6.07
2022-08-26T23:05:27.738Z,6.43
2022-08-26T23:07:56.299Z,6.00
2022-08-26T23:10:26.527Z,6.30
2022-08-26T23:12:53.707Z,6.30
2022-08-26T23:15:21.314Z,6.05
2022-08-26T23:17:57.043Z,6.53
2022-08-26T23:20:28.153Z,6.00
2022-08-26T23:22:55.545Z,6.05
2022-08-26T23:25:23.282Z,6.03
2022-08-26T23:27:52.057Z,5.55
2022-08-26T23:30:22.520Z,6.70
2022-08-26T23:32:50.100Z,5.93
2022-08-26T23:35:19.916Z,6.20
2022-08-26T23:37:48.958Z,6.13
2022-08-26T23:40:20.924Z,6.10
2022-08-26T23:42:47.941Z,6.47
2022-08-26T23:45:18.402Z,6.38
2022-08-26T23:47:45.655Z,6.13
2022-08-26T23:50:13.146Z,6.65
2022-08-26T23:52:58.323Z,5.95
2022-08-26T23:55:25.368Z,6.90
2022-08-26T23:57:52.169Z,6.07
